Time;durP1;ratioP1;P1;durP2;ratioP2;P2;SDS_P1;SDS_P2;PMS_P1;PMS_P2;Temp;Humidity;BMP_temperature;BMP_pressure;BME280_temperature;BME280_humidity;BME280_pressure;Samples;Min_cycle;Max_cycle;Signal;HPM_P1;HPM_P2
2024/01/05 00:01:38;;;;;;;;;;;7.20;89.30;;;;;;4997144;28;92264;-48
2024/01/05 00:04:04;;;;;;;;;;;7.10;89.20;;;;;;4995415;28;92137;-47
2024/01/05 00:06:29;;;;;;;;;;;7.20;89.30;;;;;;4992832;28;92385;-48
2024/01/05 00:08:55;;;;;;;;;;;7.10;89.20;;;;;;4996951;28;92044;-48
2024/01/05 00:11:21;;;;;;;;;;;7.10;89.20;;;;;;4993541;28;91804;-48
2024/01/05 00:13:47;;;;;;;;;;;7.10;89.20;;;;;;4996297;28;93422;-47
2024/01/05 00:16:19;;;;;;;;;;;7.10;89.20;;;;;;4997623;28;92098;-49
2024/01/05 00:18:45;;;;;;;;;;;7.10;89.30;;;;;;4991493;28;93432;-51
2024/01/05 00:21:23;;;;;;;;;;;7.10;89.30;;;;;;4996092;28;92457;-48
2024/01/05 00:23:49;;;;;;;;;;;7.10;89.80;;;;;;4994695;28;92008;-49
2024/01/05 00:26:14;;;;;;;;;;;7.10;89.30;;;;;;4994036;28;93941;-49
2024/01/05 00:28:40;;;;;;;;;;;7.10;89.30;;;;;;4992771;28;92099;-48
2024/01/05 00:31:08;;;;;;;;;;;7.10;89.20;;;;;;4997157;28;92746;-48
2024/01/05 00:33:34;;;;;;;;;;;7.00;89.20;;;;;;4996193;28;92540;-47
2024/01/05 00:36:00;;;;;;;;;;;7.00;89.20;;;;;;4994501;28;91238;-48
2024/01/05 00:38:25;;;;;;;;;;;7.10;89.30;;;;;;4997112;28;92186;-49
2024/01/05 00:40:51;;;;;;;;;;;7.00;89.20;;;;;;4994159;28;92086;-48
2024/01/05 00:43:16;;;;;;;;;;;7.00;89.20;;;;;;4994276;28;92884;-52
2024/01/05 00:45:42;;;;;;;;;;;7.00;89.20;;;;;;4992929;28;93891;-47
2024/01/05 00:48:07;;;;;;;;;;;7.10;89.10;;;;;;4999750;28;92132;-48
2024/01/05 00:50:33;;;;;;;;;;;7.00;89.20;;;;;;4995230;28;92666;-49
2024/01/05 00:52:58;;;;;;;;;;;7.00;89.20;;;;;;4995631;28;92491;-49
2024/01/05 00:55:24;;;;;;;;;;;7.00;89.20;;;;;;4996146;28;92019;-48
2024/01/05 00:57:49;;;;;;;;;;;7.00;89.20;;;;;;4994571;28;91974;-49
2024/01/05 01:00:15;;;;;;;;;;;7.00;89.10;;;;;;4995461;28;91811;-48
2024/01/05 01:02:41;;;;;;;;;;;7.00;89.20;;;;;;4995757;28;92034;-48
2024/01/05 01:05:07;;;;;;;;;;;7.00;89.10;;;;;;4995143;28;93012;-47
2024/01/05 01:07:33;;;;;;;;;;;6.90;89.20;;;;;;4993126;28;92914;-49
2024/01/05 01:09:58;;;;;;;;;;;6.90;89.20;;;;;;4994179;28;92665;-49
2024/01/05 01:12:25;;;;;;;;;;;6.90;89.00;;;;;;4993768;28;92428;-48
2024/01/05 01:14:50;;;;;;;;;;;6.90;89.10;;;;;;4993935;28;91910;-48
2024/01/05 01:17:16;;;;;;;;;;;6.90;89.10;;;;;;4994274;28;91767;-52
2024/01/05 01:19:42;;;;;;;;;;;6.90;89.10;;;;;;4992667;28;93362;-49
2024/01/05 01:22:07;;;;;;;;;;;6.90;89.00;;;;;;4997580;28;92009;-49
2024/01/05 01:24:33;;;;;;;;;;;6.90;89.00;;;;;;4994148;28;91798;-48
2024/01/05 01:26:58;;;;;;;;;;;6.90;89.00;;;;;;4998376;28;92161;-48
2024/01/05 01:29:25;;;;;;;;;;;6.90;89.20;;;;;;4995815;28;92743;-48
2024/01/05 01:31:50;;;;;;;;;;;6.80;89.10;;;;;;4992590;28;94461;-49
2024/01/05 01:34:16;;;;;;;;;;;6.80;89.00;;;;;;4996230;28;92091;-49
2024/01/05 01:36:41;;;;;;;;;;;6.90;89.00;;;;;;4993896;28;91887;-50
2024/01/05 01:39:07;;;;;;;;;;;6.80;89.00;;;;;;4992332;28;92268;-47
2024/01/05 01:41:32;;;;;;;;;;;6.90;89.00;;;;;;4991686;28;91992;-48
2024/01/05 01:43:58;;;;;;;;;;;6.80;88.90;;;;;;4995812;28;92056;-49
2024/01/05 01:46:24;;;;;;;;;;;6.80;89.00;;;;;;4996638;28;92005;-49
2024/01/05 01:48:53;;;;;;;;;;;6.80;88.90;;;;;;4994202;28;92878;-49
2024/01/05 01:51:18;;;;;;;;;;;6.80;88.90;;;;;;4994790;28;92464;-48
2024/01/05 01:53:44;;;;;;;;;;;6.80;88.90;;;;;;4997167;28;92150;-50
2024/01/05 01:56:11;;;;;;;;;;;6.80;89.00;;;;;;4992587;28;93180;-49
2024/01/05 01:58:38;;;;;;;;;;;6.80;88.90;;;;;;4992860;28;93629;-47
2024/01/05 02:01:05;;;;;;;;;;;6.80;88.90;;;;;;5001118;28;91997;-51
2024/01/05 02:03:30;;;;;;;;;;;6.80;89.00;;;;;;4994980;28;92723;-49
2024/01/05 02:05:56;;;;;;;;;;;6.70;89.00;;;;;;4994866;28;92158;-52
2024/01/05 02:08:22;;;;;;;;;;;6.80;88.90;;;;;;4995065;28;91964;-50
2024/01/05 02:10:47;;;;;;;;;;;6.80;88.90;;;;;;4990093;28;92538;-51
2024/01/05 02:13:13;;;;;;;;;;;6.70;88.90;;;;;;4994528;28;91311;-51
2024/01/05 02:15:38;;;;;;;;;;;6.80;88.90;;;;;;4991517;28;92013;-52
2024/01/05 02:18:13;;;;;;;;;;;6.70;88.90;;;;;;4988822;28;92555;-52
2024/01/05 02:20:39;;;;;;;;;;;6.70;88.90;;;;;;4993177;28;93077;-49
2024/01/05 02:23:14;;;;;;;;;;;6.70;88.90;;;;;;4996730;28;92593;-53
2024/01/05 02:25:39;;;;;;;;;;;6.70;88.90;;;;;;4994045;28;92353;-49
2024/01/05 02:28:05;;;;;;;;;;;6.70;88.90;;;;;;5001211;28;94802;-47
2024/01/05 02:30:31;;;;;;;;;;;6.70;88.90;;;;;;4992991;28;92587;-49
2024/01/05 02:32:56;;;;;;;;;;;6.70;88.80;;;;;;5001457;28;92208;-48
2024/01/05 02:35:22;;;;;;;;;;;6.70;88.80;;;;;;4994814;28;92934;-48
2024/01/05 02:37:47;;;;;;;;;;;6.70;88.80;;;;;;4995471;28;91829;-48
2024/01/05 02:40:13;;;;;;;;;;;6.70;88.80;;;;;;4994392;28;92257;-49
2024/01/05 02:42:39;;;;;;;;;;;6.60;88.80;;;;;;4991290;28;91982;-48
2024/01/05 02:45:05;;;;;;;;;;;6.60;89.30;;;;;;4993794;28;93405;-48
2024/01/05 02:47:30;;;;;;;;;;;6.60;88.70;;;;;;4994622;28;92033;-48
2024/01/05 02:49:56;;;;;;;;;;;6.60;88.90;;;;;;4999442;28;92538;-49
2024/01/05 02:52:21;;;;;;;;;;;6.60;88.90;;;;;;4998269;28;92186;-49
2024/01/05 02:54:47;;;;;;;;;;;6.60;88.90;;;;;;5002074;28;91984;-48
2024/01/05 02:57:12;;;;;;;;;;;6.60;88.80;;;;;;4997216;28;92614;-48
2024/01/05 02:59:38;;;;;;;;;;;6.60;88.80;;;;;;4998067;28;92139;-50
2024/01/05 03:02:04;;;;;;;;;;;6.60;88.90;;;;;;4992085;28;92899;-48
2024/01/05 03:04:29;;;;;;;;;;;6.60;88.90;;;;;;4996981;28;92394;-50
2024/01/05 03:06:55;;;;;;;;;;;6.50;88.80;;;;;;4997107;28;92249;-48
2024/01/05 03:09:20;;;;;;;;;;;6.60;88.80;;;;;;5000029;28;92985;-49
2024/01/05 03:11:46;;;;;;;;;;;6.50;88.70;;;;;;4997840;28;92231;-49
2024/01/05 03:14:13;;;;;;;;;;;6.50;88.80;;;;;;4994448;28;92012;-48
2024/01/05 03:16:39;;;;;;;;;;;6.50;88.80;;;;;;4999025;28;92448;-50
2024/01/05 03:19:04;;;;;;;;;;;6.50;88.70;;;;;;4993762;28;92126;-47
2024/01/05 03:21:30;;;;;;;;;;;6.50;88.70;;;;;;4997408;28;92981;-48
2024/01/05 03:23:55;;;;;;;;;;;6.50;88.70;;;;;;4997105;28;92843;-47
2024/01/05 03:26:21;;;;;;;;;;;6.50;88.70;;;;;;4996625;28;91933;-49
2024/01/05 03:28:46;;;;;;;;;;;6.50;89.40;;;;;;4994675;28;91898;-48
2024/01/05 03:31:12;;;;;;;;;;;6.50;88.80;;;;;;4996885;28;92442;-48
2024/01/05 03:33:41;;;;;;;;;;;6.50;88.70;;;;;;4996541;28;92865;-48
2024/01/05 03:36:07;;;;;;;;;;;6.40;88.70;;;;;;4996629;28;92613;-47
2024/01/05 03:38:32;;;;;;;;;;;6.50;88.80;;;;;;4993820;28;92040;-48
2024/01/05 03:40:58;;;;;;;;;;;6.50;88.80;;;;;;4996622;28;92875;-49
2024/01/05 03:43:23;;;;;;;;;;;6.50;88.80;;;;;;4993281;28;92531;-49
2024/01/05 03:45:49;;;;;;;;;;;6.40;88.70;;;;;;4993756;28;92116;-48
2024/01/05 03:48:15;;;;;;;;;;;6.40;88.70;;;;;;4997041;28;92035;-48
2024/01/05 03:50:40;;;;;;;;;;;6.40;88.70;;;;;;4993289;28;92719;-48
2024/01/05 03:53:06;;;;;;;;;;;6.40;88.60;;;;;;4996359;28;92062;-49
2024/01/05 03:55:32;;;;;;;;;;;6.40;88.60;;;;;;4995958;28;92524;-48
2024/01/05 03:57:58;;;;;;;;;;;6.40;88.50;;;;;;4996672;28;93070;-47
2024/01/05 04:00:23;;;;;;;;;;;6.40;88.50;;;;;;4995870;28;92747;-48
2024/01/05 04:02:49;;;;;;;;;;;6.40;88.60;;;;;;4996018;28;92554;-47
2024/01/05 04:05:15;;;;;;;;;;;6.30;88.70;;;;;;4992442;28;92129;-50
2024/01/05 04:07:40;;;;;;;;;;;6.30;88.70;;;;;;4995122;28;92970;-47
2024/01/05 04:10:06;;;;;;;;;;;6.30;88.60;;;;;;4996196;28;93474;-47
2024/01/05 04:12:32;;;;;;;;;;;6.30;88.80;;;;;;4997356;28;92465;-47
2024/01/05 04:14:57;;;;;;;;;;;6.30;88.60;;;;;;4991441;28;92729;-48
2024/01/05 04:17:23;;;;;;;;;;;6.30;88.70;;;;;;4993206;28;92091;-49
2024/01/05 04:19:48;;;;;;;;;;;6.30;88.80;;;;;;4992740;28;91903;-48
2024/01/05 04:22:14;;;;;;;;;;;6.20;88.70;;;;;;4995100;28;92697;-49
2024/01/05 04:24:40;;;;;;;;;;;6.20;88.60;;;;;;4996227;28;91980;-48
2024/01/05 04:27:06;;;;;;;;;;;6.20;88.80;;;;;;4993485;28;92931;-49
2024/01/05 04:29:31;;;;;;;;;;;6.20;88.70;;;;;;4998733;28;92357;-47
2024/01/05 04:31:57;;;;;;;;;;;6.20;88.70;;;;;;4996628;28;92946;-46
2024/01/05 04:34:22;;;;;;;;;;;6.20;88.70;;;;;;4999653;28;92037;-48
2024/01/05 04:36:48;;;;;;;;;;;6.20;88.90;;;;;;4995275;28;92039;-46
2024/01/05 04:39:13;;;;;;;;;;;6.20;88.90;;;;;;4994166;28;91815;-48
2024/01/05 04:41:39;;;;;;;;;;;6.20;88.90;;;;;;4999110;28;94279;-48
2024/01/05 04:44:04;;;;;;;;;;;6.20;88.90;;;;;;4998335;28;92120;-47
2024/01/05 04:46:30;;;;;;;;;;;6.20;88.90;;;;;;4992122;28;92996;-49
2024/01/05 04:48:56;;;;;;;;;;;6.20;88.80;;;;;;4992988;28;92774;-48
2024/01/05 04:51:21;;;;;;;;;;;6.20;88.90;;;;;;4991586;28;92852;-48
2024/01/05 04:53:49;;;;;;;;;;;6.10;88.70;;;;;;4995405;28;91952;-48
2024/01/05 04:56:14;;;;;;;;;;;6.10;88.90;;;;;;4996313;28;93740;-49
2024/01/05 04:58:40;;;;;;;;;;;6.10;89.00;;;;;;4998885;28;92007;-48
2024/01/05 05:01:06;;;;;;;;;;;6.10;88.90;;;;;;4993034;28;92505;-51
2024/01/05 05:03:31;;;;;;;;;;;6.10;89.00;;;;;;4997162;28;91293;-48
2024/01/05 05:05:57;;;;;;;;;;;6.10;88.70;;;;;;4996336;28;92067;-47
2024/01/05 05:08:23;;;;;;;;;;;6.10;88.50;;;;;;4992312;28;92413;-48
2024/01/05 05:10:48;;;;;;;;;;;6.10;88.60;;;;;;4994407;28;93013;-47
2024/01/05 05:13:14;;;;;;;;;;;6.10;88.40;;;;;;4998518;28;93856;-47
2024/01/05 05:15:39;;;;;;;;;;;6.10;88.40;;;;;;4998646;28;92369;-48
2024/01/05 05:18:05;;;;;;;;;;;6.10;88.70;;;;;;4997371;28;92010;-49
2024/01/05 05:20:30;;;;;;;;;;;6.00;88.70;;;;;;4988563;28;92377;-46
2024/01/05 05:22:56;;;;;;;;;;;6.00;88.60;;;;;;4995506;28;92116;-47
2024/01/05 05:25:22;;;;;;;;;;;6.10;88.50;;;;;;4999059;28;92034;-47
2024/01/05 05:27:47;;;;;;;;;;;6.10;88.40;;;;;;4993379;28;91592;-48
2024/01/05 05:30:13;;;;;;;;;;;6.10;88.20;;;;;;4995704;28;92016;-48
2024/01/05 05:32:38;;;;;;;;;;;6.10;88.30;;;;;;4995373;28;92093;-48
2024/01/05 05:35:05;;;;;;;;;;;6.10;88.40;;;;;;4994670;28;93603;-47
2024/01/05 05:37:30;;;;;;;;;;;6.10;88.40;;;;;;4993594;28;91950;-47
2024/01/05 05:39:56;;;;;;;;;;;6.10;88.20;;;;;;5001911;28;91933;-47
2024/01/05 05:42:21;;;;;;;;;;;6.10;88.30;;;;;;4995676;28;92170;-48
2024/01/05 05:44:47;;;;;;;;;;;6.00;88.10;;;;;;4991064;28;92684;-48
2024/01/05 05:47:12;;;;;;;;;;;6.00;88.20;;;;;;4989772;28;93738;-48
2024/01/05 05:49:38;;;;;;;;;;;6.00;88.30;;;;;;4995124;28;92074;-47
2024/01/05 05:52:07;;;;;;;;;;;6.00;88.20;;;;;;4991944;28;92373;-48
2024/01/05 05:54:32;;;;;;;;;;;6.10;88.00;;;;;;4995536;28;93609;-48
2024/01/05 05:56:58;;;;;;;;;;;6.00;88.00;;;;;;4994503;28;91985;-49
2024/01/05 05:59:23;;;;;;;;;;;6.00;87.90;;;;;;4999155;28;92896;-48
2024/01/05 06:01:49;;;;;;;;;;;6.00;87.80;;;;;;4994492;28;92396;-48
2024/01/05 06:04:14;;;;;;;;;;;6.00;87.80;;;;;;4996204;28;93516;-50
2024/01/05 06:06:40;;;;;;;;;;;6.00;87.80;;;;;;4996128;28;93075;-48
2024/01/05 06:09:07;;;;;;;;;;;6.00;87.90;;;;;;4996781;28;92044;-51
2024/01/05 06:11:33;;;;;;;;;;;6.00;87.90;;;;;;4991031;28;93994;-48
2024/01/05 06:13:59;;;;;;;;;;;6.00;87.80;;;;;;4994318;28;93604;-50
2024/01/05 06:16:25;;;;;;;;;;;5.90;87.90;;;;;;4995675;28;91315;-47
2024/01/05 06:18:50;;;;;;;;;;;6.00;87.80;;;;;;4993851;28;92309;-48
2024/01/05 06:21:16;;;;;;;;;;;6.00;87.70;;;;;;4997466;28;93640;-48
2024/01/05 06:23:41;;;;;;;;;;;6.00;87.70;;;;;;4995591;28;93055;-49
2024/01/05 06:26:07;;;;;;;;;;;6.00;87.70;;;;;;4999324;28;92517;-48
2024/01/05 06:28:32;;;;;;;;;;;5.90;87.60;;;;;;5005034;28;92734;-48
2024/01/05 06:30:58;;;;;;;;;;;5.90;87.70;;;;;;4997471;28;92424;-50
2024/01/05 06:33:23;;;;;;;;;;;6.00;87.60;;;;;;4997701;28;93119;-48
2024/01/05 06:35:49;;;;;;;;;;;5.90;87.60;;;;;;4999609;28;92044;-48
2024/01/05 06:38:15;;;;;;;;;;;5.90;87.70;;;;;;5002453;28;93184;-48
2024/01/05 06:40:40;;;;;;;;;;;5.90;87.70;;;;;;5000218;28;91527;-48
2024/01/05 06:43:06;;;;;;;;;;;5.90;87.70;;;;;;5006810;28;92153;-49
2024/01/05 06:45:31;;;;;;;;;;;5.80;87.60;;;;;;4994988;28;92792;-49
2024/01/05 06:47:57;;;;;;;;;;;5.90;87.70;;;;;;5003539;28;93098;-47
2024/01/05 06:50:24;;;;;;;;;;;5.90;87.70;;;;;;4997488;28;92723;-49
2024/01/05 06:52:50;;;;;;;;;;;5.90;87.70;;;;;;4996087;28;92766;-50
2024/01/05 06:55:15;;;;;;;;;;;5.90;87.60;;;;;;4999333;28;92067;-52
2024/01/05 06:57:41;;;;;;;;;;;5.90;87.60;;;;;;5003279;28;92057;-48
2024/01/05 07:00:09;;;;;;;;;;;5.90;87.50;;;;;;4994878;28;92542;-48
2024/01/05 07:02:35;;;;;;;;;;;5.90;87.50;;;;;;5000676;28;92032;-48
2024/01/05 07:05:01;;;;;;;;;;;5.80;87.50;;;;;;5002196;28;93027;-48
2024/01/05 07:07:27;;;;;;;;;;;5.80;87.40;;;;;;5001951;28;92166;-50
2024/01/05 07:09:53;;;;;;;;;;;5.80;87.40;;;;;;4999261;28;92100;-49
2024/01/05 07:12:19;;;;;;;;;;;5.80;87.50;;;;;;4995747;28;94484;-49
2024/01/05 07:14:46;;;;;;;;;;;5.80;87.50;;;;;;5000164;28;92060;-48
2024/01/05 07:17:11;;;;;;;;;;;5.80;87.60;;;;;;4995209;28;92693;-48
2024/01/05 07:19:38;;;;;;;;;;;5.80;87.50;;;;;;5002011;28;92838;-47
2024/01/05 07:22:03;;;;;;;;;;;5.80;87.40;;;;;;4999105;28;91985;-48
2024/01/05 07:24:29;;;;;;;;;;;5.80;87.40;;;;;;5004389;28;92793;-47
2024/01/05 07:26:54;;;;;;;;;;;5.80;87.40;;;;;;5001890;28;94446;-49
2024/01/05 07:29:20;;;;;;;;;;;5.80;87.40;;;;;;5002412;28;91741;-48
2024/01/05 07:31:46;;;;;;;;;;;5.80;87.40;;;;;;5000542;28;92749;-47
2024/01/05 07:34:11;;;;;;;;;;;5.80;87.30;;;;;;5001876;28;92189;-47
2024/01/05 07:36:43;;;;;;;;;;;5.80;87.40;;;;;;4991355;28;93628;-47
2024/01/05 07:39:10;;;;;;;;;;;5.80;87.30;;;;;;4993581;28;92654;-48
2024/01/05 07:41:36;;;;;;;;;;;5.80;87.40;;;;;;5000474;28;92086;-50
2024/01/05 07:44:02;;;;;;;;;;;5.70;87.40;;;;;;4996458;28;93605;-48
2024/01/05 07:46:27;;;;;;;;;;;5.70;87.50;;;;;;4992663;28;92787;-52
2024/01/05 07:48:53;;;;;;;;;;;5.70;87.50;;;;;;4998861;28;92067;-47
2024/01/05 07:51:19;;;;;;;;;;;5.70;87.60;;;;;;4999216;28;93494;-47
2024/01/05 07:53:44;;;;;;;;;;;5.70;87.50;;;;;;5000357;28;91315;-47
2024/01/05 07:56:10;;;;;;;;;;;5.60;87.70;;;;;;4994973;28;92777;-48
2024/01/05 07:58:35;;;;;;;;;;;5.60;87.90;;;;;;4991927;28;93961;-50
2024/01/05 08:01:01;;;;;;;;;;;5.60;87.90;;;;;;4998031;28;93064;-48
2024/01/05 08:03:27;;;;;;;;;;;5.60;88.00;;;;;;5004038;28;92357;-49
2024/01/05 08:05:52;;;;;;;;;;;5.50;88.10;;;;;;4993275;28;93612;-48
2024/01/05 08:08:18;;;;;;;;;;;5.60;88.20;;;;;;4992326;28;92163;-47
2024/01/05 08:10:44;;;;;;;;;;;5.50;88.20;;;;;;4998229;28;93605;-48
2024/01/05 08:13:09;;;;;;;;;;;5.50;88.10;;;;;;4996236;28;92354;-47
2024/01/05 08:15:35;;;;;;;;;;;5.50;88.00;;;;;;4995302;28;92994;-48
2024/01/05 08:18:01;;;;;;;;;;;5.50;88.00;;;;;;4996347;28;92357;-51
2024/01/05 08:20:26;;;;;;;;;;;5.50;88.20;;;;;;4996166;28;91947;-47
2024/01/05 08:22:52;;;;;;;;;;;5.60;88.00;;;;;;4995437;28;92021;-47
2024/01/05 08:25:18;;;;;;;;;;;5.60;87.90;;;;;;4993825;28;93460;-48
2024/01/05 08:27:43;;;;;;;;;;;5.50;88.00;;;;;;4993596;28;91974;-47
2024/01/05 08:30:12;;;;;;;;;;;5.60;87.90;;;;;;4995900;28;91962;-51
2024/01/05 08:32:38;;;;;;;;;;;5.50;87.90;;;;;;4997252;28;93772;-46
2024/01/05 08:35:04;;;;;;;;;;;5.50;88.00;;;;;;4995930;28;92909;-47
2024/01/05 08:37:30;;;;;;;;;;;5.50;87.90;;;;;;4993031;28;92377;-47
2024/01/05 08:39:56;;;;;;;;;;;5.60;87.90;;;;;;4997595;28;92053;-48
2024/01/05 08:42:21;;;;;;;;;;;5.50;87.90;;;;;;4995684;28;93172;-49
2024/01/05 08:44:47;;;;;;;;;;;5.60;87.90;;;;;;4993462;28;93474;-48
2024/01/05 08:47:13;;;;;;;;;;;5.60;87.90;;;;;;4993212;28;91956;-48
2024/01/05 08:49:38;;;;;;;;;;;5.50;88.00;;;;;;4993597;28;93037;-48
2024/01/05 08:52:04;;;;;;;;;;;5.50;87.80;;;;;;4999919;28;92401;-49
2024/01/05 08:54:29;;;;;;;;;;;5.60;87.80;;;;;;4995017;28;93792;-48
2024/01/05 08:56:56;;;;;;;;;;;5.60;87.70;;;;;;4993521;28;92514;-50
2024/01/05 08:59:22;;;;;;;;;;;5.60;87.70;;;;;;4999271;28;92000;-51
2024/01/05 09:01:47;;;;;;;;;;;5.60;87.80;;;;;;4997146;28;92372;-48
2024/01/05 09:04:13;;;;;;;;;;;5.60;87.70;;;;;;4994080;28;93497;-49
2024/01/05 09:06:39;;;;;;;;;;;5.50;87.70;;;;;;4991847;28;91308;-49
2024/01/05 09:09:05;;;;;;;;;;;5.50;87.90;;;;;;4997699;28;92090;-48
2024/01/05 09:11:30;;;;;;;;;;;5.50;87.80;;;;;;4992187;28;93544;-49
2024/01/05 09:13:56;;;;;;;;;;;5.60;87.80;;;;;;4998536;28;93044;-53
2024/01/05 09:16:22;;;;;;;;;;;5.50;87.70;;;;;;4996329;28;93563;-50
2024/01/05 09:18:47;;;;;;;;;;;5.60;87.70;;;;;;4991888;28;92420;-51
2024/01/05 09:21:14;;;;;;;;;;;5.50;87.80;;;;;;4990488;28;92666;-51
2024/01/05 09:23:41;;;;;;;;;;;5.50;87.70;;;;;;4992683;28;93512;-49
2024/01/05 09:26:15;;;;;;;;;;;5.60;87.50;;;;;;4990373;28;92067;-52
2024/01/05 09:28:41;;;;;;;;;;;5.60;87.60;;;;;;4994838;28;92944;-52
2024/01/05 09:31:06;;;;;;;;;;;5.60;87.60;;;;;;5000331;28;92818;-48
2024/01/05 09:33:32;;;;;;;;;;;5.60;87.60;;;;;;4991898;28;92295;-50
2024/01/05 09:35:59;;;;;;;;;;;5.50;87.70;;;;;;5001580;28;93114;-48
2024/01/05 09:38:24;;;;;;;;;;;5.60;87.60;;;;;;4993298;28;93862;-47
2024/01/05 09:40:52;;;;;;;;;;;5.50;87.70;;;;;;4995204;28;92617;-47
2024/01/05 09:43:21;;;;;;;;;;;5.50;88.30;;;;;;4997968;28;92798;-50
2024/01/05 09:45:49;;;;;;;;;;;5.50;87.70;;;;;;4994135;28;92029;-48
2024/01/05 09:48:16;;;;;;;;;;;5.50;87.80;;;;;;4991358;28;92908;-49
2024/01/05 09:50:42;;;;;;;;;;;5.50;87.80;;;;;;4990612;28;92629;-49
2024/01/05 09:53:09;;;;;;;;;;;5.50;87.80;;;;;;4998078;28;92315;-48
2024/01/05 09:55:36;;;;;;;;;;;5.50;87.80;;;;;;4992365;28;92947;-48
2024/01/05 09:58:03;;;;;;;;;;;5.50;87.90;;;;;;4996906;28;92606;-48
2024/01/05 10:00:29;;;;;;;;;;;5.50;87.90;;;;;;4997893;28;92315;-48
2024/01/05 10:02:59;;;;;;;;;;;5.50;87.90;;;;;;4994800;28;93446;-48
2024/01/05 10:05:25;;;;;;;;;;;5.50;87.80;;;;;;4992965;28;92363;-48
2024/01/05 10:07:50;;;;;;;;;;;5.50;87.80;;;;;;4989130;28;91997;-47
2024/01/05 10:10:16;;;;;;;;;;;5.50;88.00;;;;;;4993176;28;92391;-48
2024/01/05 10:12:41;;;;;;;;;;;5.50;87.80;;;;;;4996370;28;92058;-48
2024/01/05 10:15:07;;;;;;;;;;;5.50;87.90;;;;;;4998477;28;92809;-49
2024/01/05 10:17:33;;;;;;;;;;;5.60;87.90;;;;;;4999449;28;92799;-49
2024/01/05 10:20:16;;;;;;;;;;;5.50;87.80;;;;;;5001003;28;91281;-47
2024/01/05 10:22:48;;;;;;;;;;;5.50;87.80;;;;;;4989235;28;93549;-49
2024/01/05 10:25:17;;;;;;;;;;;5.50;87.80;;;;;;4991845;28;92232;-48
2024/01/05 10:27:44;;;;;;;;;;;5.50;87.90;;;;;;4996619;28;92972;-49
2024/01/05 10:30:10;;;;;;;;;;;5.50;87.90;;;;;;4991761;28;93535;-48
2024/01/05 10:32:38;;;;;;;;;;;5.40;87.90;;;;;;4989253;28;92399;-49
2024/01/05 10:35:07;;;;;;;;;;;5.40;88.00;;;;;;4996353;28;93110;-48
2024/01/05 10:37:33;;;;;;;;;;;5.50;87.90;;;;;;4994001;28;92852;-47
2024/01/05 10:40:03;;;;;;;;;;;5.50;88.10;;;;;;4996412;28;91983;-47
2024/01/05 10:42:29;;;;;;;;;;;5.50;87.90;;;;;;4992789;28;93572;-48
2024/01/05 10:44:57;;;;;;;;;;;5.50;88.00;;;;;;4990963;28;91299;-47
2024/01/05 10:47:24;;;;;;;;;;;5.50;88.00;;;;;;4991493;28;91985;-49
2024/01/05 10:49:50;;;;;;;;;;;5.50;88.00;;;;;;4995143;28;92613;-49
2024/01/05 10:52:16;;;;;;;;;;;5.50;88.20;;;;;;4990088;28;93512;-50
2024/01/05 10:54:44;;;;;;;;;;;5.40;88.30;;;;;;4993457;28;93729;-47
2024/01/05 10:57:11;;;;;;;;;;;5.50;88.40;;;;;;4991034;28;93073;-48
2024/01/05 10:59:37;;;;;;;;;;;5.40;88.20;;;;;;4994512;28;91944;-47
2024/01/05 11:02:09;;;;;;;;;;;5.40;88.30;;;;;;4996644;28;92755;-48
2024/01/05 11:04:37;;;;;;;;;;;5.50;88.10;;;;;;4992992;28;91925;-48
2024/01/05 11:07:03;;;;;;;;;;;5.50;88.40;;;;;;4990502;28;91973;-48
2024/01/05 11:09:39;;;;;;;;;;;5.50;88.20;;;;;;4991799;28;91773;-49
2024/01/05 11:12:13;;;;;;;;;;;5.50;88.30;;;;;;4995738;28;91863;-49
2024/01/05 11:14:45;;;;;;;;;;;5.50;88.50;;;;;;4993927;28;92995;-48
2024/01/05 11:17:10;;;;;;;;;;;5.50;88.40;;;;;;4996696;28;93603;-49
2024/01/05 11:19:42;;;;;;;;;;;5.50;88.20;;;;;;4993394;28;93621;-47
2024/01/05 11:22:10;;;;;;;;;;;5.50;88.50;;;;;;4994756;28;92001;-48
2024/01/05 11:24:36;;;;;;;;;;;5.50;88.20;;;;;;5006219;28;93552;-47
2024/01/05 11:27:22;;;;;;;;;;;5.50;88.40;;;;;;4995039;28;92077;-48
2024/01/05 11:29:48;;;;;;;;;;;5.50;88.50;;;;;;5000615;28;94282;-49
2024/01/05 11:32:33;;;;;;;;;;;5.50;88.40;;;;;;4997514;28;92054;-50
2024/01/05 11:34:58;;;;;;;;;;;5.50;88.30;;;;;;4996434;28;93350;-51
2024/01/05 11:37:27;;;;;;;;;;;5.50;88.50;;;;;;5000333;28;92498;-48
2024/01/05 11:39:53;;;;;;;;;;;5.50;88.50;;;;;;4999392;28;92099;-49
2024/01/05 11:42:25;;;;;;;;;;;5.50;88.70;;;;;;4995046;28;93041;-49
2024/01/05 11:44:51;;;;;;;;;;;5.50;88.90;;;;;;4998814;28;93577;-50
2024/01/05 11:47:35;;;;;;;;;;;5.50;88.90;;;;;;4996871;28;92049;-49
2024/01/05 11:50:21;;;;;;;;;;;5.50;89.00;;;;;;4997627;28;92410;-48
2024/01/05 11:52:47;;;;;;;;;;;5.50;89.10;;;;;;4997689;28;92154;-48
2024/01/05 11:55:13;;;;;;;;;;;5.60;89.40;;;;;;4999182;28;92881;-48
2024/01/05 11:57:38;;;;;;;;;;;5.50;89.40;;;;;;4993499;28;93731;-48
2024/01/05 12:00:04;;;;;;;;;;;5.60;89.50;;;;;;4993627;28;91279;-48
2024/01/05 12:02:30;;;;;;;;;;;5.60;89.40;;;;;;4996861;28;92023;-47
2024/01/05 12:04:56;;;;;;;;;;;5.60;89.50;;;;;;4997575;28;93992;-47
2024/01/05 12:07:22;;;;;;;;;;;5.60;89.30;;;;;;5000674;28;93033;-48
2024/01/05 12:09:51;;;;;;;;;;;5.60;89.50;;;;;;4995173;28;93790;-49
2024/01/05 12:12:17;;;;;;;;;;;5.60;90.00;;;;;;4999353;28;92004;-50
2024/01/05 12:14:43;;;;;;;;;;;5.60;89.70;;;;;;4999809;28;92083;-48
2024/01/05 12:17:15;;;;;;;;;;;5.60;89.80;;;;;;4993535;28;93543;-49
2024/01/05 12:19:40;;;;;;;;;;;5.60;89.70;;;;;;4992570;28;92018;-48
2024/01/05 12:22:07;;;;;;;;;;;5.60;89.70;;;;;;4991754;28;91864;-50
2024/01/05 12:24:33;;;;;;;;;;;5.60;90.00;;;;;;4994819;28;92696;-48
2024/01/05 12:26:58;;;;;;;;;;;5.60;90.00;;;;;;4996805;28;91983;-47
2024/01/05 12:29:24;;;;;;;;;;;5.60;89.80;;;;;;4993364;28;92014;-49
2024/01/05 12:31:49;;;;;;;;;;;5.60;90.00;;;;;;4993395;28;93152;-49
2024/01/05 12:34:17;;;;;;;;;;;5.60;89.90;;;;;;4992410;28;92736;-50
2024/01/05 12:36:43;;;;;;;;;;;5.70;90.10;;;;;;4994252;28;92404;-47
2024/01/05 12:39:12;;;;;;;;;;;5.60;90.00;;;;;;4994335;28;92620;-47
2024/01/05 12:41:39;;;;;;;;;;;5.60;90.10;;;;;;4996460;28;92833;-48
2024/01/05 12:44:07;;;;;;;;;;;5.60;90.20;;;;;;4995610;28;92654;-48
2024/01/05 12:46:40;;;;;;;;;;;5.60;90.20;;;;;;5002739;28;92394;-49
2024/01/05 12:49:21;;;;;;;;;;;5.60;90.20;;;;;;4996023;28;91611;-48
2024/01/05 12:51:47;;;;;;;;;;;5.60;90.20;;;;;;4994127;28;93581;-49
2024/01/05 12:54:13;;;;;;;;;;;5.70;90.10;;;;;;4996851;28;92879;-49
2024/01/05 12:56:44;;;;;;;;;;;5.60;90.20;;;;;;4995737;28;93510;-48
2024/01/05 12:59:17;;;;;;;;;;;5.60;90.20;;;;;;4989916;28;92051;-47
2024/01/05 13:01:42;;;;;;;;;;;5.70;90.20;;;;;;4994935;28;92887;-48
2024/01/05 13:04:08;;;;;;;;;;;5.70;90.30;;;;;;4995708;28;92568;-48
2024/01/05 13:06:37;;;;;;;;;;;5.70;90.30;;;;;;4996059;28;92007;-50
2024/01/05 13:09:02;;;;;;;;;;;5.70;90.20;;;;;;4995679;28;92254;-49
2024/01/05 13:11:28;;;;;;;;;;;5.70;90.30;;;;;;4991415;28;93230;-48
2024/01/05 13:13:54;;;;;;;;;;;5.70;90.30;;;;;;5003185;28;91364;-47
2024/01/05 13:16:19;;;;;;;;;;;5.70;90.30;;;;;;4993509;28;92652;-48
2024/01/05 13:18:45;;;;;;;;;;;5.70;90.30;;;;;;4996961;28;92018;-48
2024/01/05 13:21:10;;;;;;;;;;;5.70;90.30;;;;;;4991268;28;92938;-49
2024/01/05 13:23:37;;;;;;;;;;;5.70;90.40;;;;;;4996538;28;93553;-50
2024/01/05 13:26:03;;;;;;;;;;;5.70;90.50;;;;;;4985801;28;92166;-47
2024/01/05 13:28:29;;;;;;;;;;;5.70;90.40;;;;;;4995525;28;92693;-48
2024/01/05 13:30:55;;;;;;;;;;;5.70;90.40;;;;;;4991398;28;92033;-49
2024/01/05 13:33:20;;;;;;;;;;;5.70;90.40;;;;;;4997005;28;92464;-48
2024/01/05 13:35:48;;;;;;;;;;;5.70;90.50;;;;;;4993671;28;92747;-47
2024/01/05 13:38:13;;;;;;;;;;;5.80;90.50;;;;;;4994527;28;91309;-49
2024/01/05 13:40:42;;;;;;;;;;;5.70;90.50;;;;;;4991919;28;92209;-48
2024/01/05 13:43:10;;;;;;;;;;;5.70;90.50;;;;;;4995750;28;93599;-48
2024/01/05 13:45:36;;;;;;;;;;;5.70;90.60;;;;;;4989510;28;92951;-48
2024/01/05 13:48:02;;;;;;;;;;;5.80;90.60;;;;;;4994409;28;93933;-50
2024/01/05 13:50:28;;;;;;;;;;;5.70;90.50;;;;;;4991598;28;93574;-48
2024/01/05 13:52:54;;;;;;;;;;;5.70;90.50;;;;;;4993122;28;93429;-48
2024/01/05 13:55:19;;;;;;;;;;;5.80;90.50;;;;;;4994125;28;92070;-48
2024/01/05 13:57:45;;;;;;;;;;;5.80;90.50;;;;;;4996564;28;93556;-48
2024/01/05 14:00:11;;;;;;;;;;;5.80;90.60;;;;;;4996894;28;92011;-49
2024/01/05 14:02:37;;;;;;;;;;;5.80;90.40;;;;;;4995416;28;94178;-50
2024/01/05 14:05:04;;;;;;;;;;;5.80;90.50;;;;;;4992423;28;92746;-49
2024/01/05 14:07:29;;;;;;;;;;;5.80;90.60;;;;;;4991254;28;93522;-50
2024/01/05 14:09:55;;;;;;;;;;;5.80;90.50;;;;;;4989856;28;93466;-49
2024/01/05 14:12:21;;;;;;;;;;;5.80;90.60;;;;;;4992577;28;92767;-49
2024/01/05 14:14:46;;;;;;;;;;;5.80;90.60;;;;;;4998770;28;94529;-49
2024/01/05 14:17:12;;;;;;;;;;;5.80;90.60;;;;;;4989115;28;94134;-48
2024/01/05 14:19:39;;;;;;;;;;;5.80;90.60;;;;;;4997034;28;92130;-50
2024/01/05 14:22:05;;;;;;;;;;;5.80;90.60;;;;;;4992355;28;92392;-49
2024/01/05 14:24:31;;;;;;;;;;;5.80;90.70;;;;;;4993425;28;92348;-50
2024/01/05 14:26:56;;;;;;;;;;;5.80;90.70;;;;;;4995006;28;91757;-48